sensor_id;sensor_type;location;lat;lon;timestamp;P1;durP1;ratioP1;P2;durP2;ratioP2
20324;SDS011;10320;49.482;11.256;2022-12-07T00:00:03;8.83;;;8.03;;
20324;SDS011;10320;49.482;11.256;2022-12-07T00:02:30;9.67;;;8.77;;
20324;SDS011;10320;49.482;11.256;2022-12-07T00:04:56;8.67;;;7.87;;
20324;SDS011;10320;49.482;11.256;2022-12-07T00:07:22;10.30;;;9.33;;
20324;SDS011;10320;49.482;11.256;2022-12-07T00:09:48;9.83;;;8.87;;
20324;SDS011;10320;49.482;11.256;2022-12-07T00:12:14;9.70;;;8.73;;
20324;SDS011;10320;49.482;11.256;2022-12-07T00:14:40;9.67;;;8.77;;
20324;SDS011;10320;49.482;11.256;2022-12-07T00:17:06;9.53;;;8.63;;
20324;SDS011;10320;49.482;11.256;2022-12-07T00:19:32;9.67;;;8.67;;
20324;SDS011;10320;49.482;11.256;2022-12-07T00:21:58;9.63;;;8.73;;
20324;SDS011;10320;49.482;11.256;2022-12-07T00:24:24;9.00;;;8.20;;
20324;SDS011;10320;49.482;11.256;2022-12-07T00:26:50;9.20;;;8.37;;
20324;SDS011;10320;49.482;11.256;2022-12-07T00:29:17;9.57;;;8.60;;
20324;SDS011;10320;49.482;11.256;2022-12-07T00:31:43;9.43;;;8.53;;
20324;SDS011;10320;49.482;11.256;2022-12-07T00:34:14;9.83;;;8.93;;
20324;SDS011;10320;49.482;11.256;2022-12-07T00:36:40;10.13;;;9.13;;
20324;SDS011;10320;49.482;11.256;2022-12-07T00:39:06;10.03;;;9.10;;
20324;SDS011;10320;49.482;11.256;2022-12-07T00:41:33;9.43;;;8.47;;
20324;SDS011;10320;49.482;11.256;2022-12-07T00:43:59;9.97;;;8.97;;
20324;SDS011;10320;49.482;11.256;2022-12-07T00:46:26;9.93;;;9.00;;
20324;SDS011;10320;49.482;11.256;2022-12-07T00:48:52;10.73;;;9.77;;
20324;SDS011;10320;49.482;11.256;2022-12-07T00:51:19;10.50;;;9.50;;
20324;SDS011;10320;49.482;11.256;2022-12-07T00:53:45;10.40;;;9.40;;
20324;SDS011;10320;49.482;11.256;2022-12-07T00:56:13;10.13;;;9.23;;
20324;SDS011;10320;49.482;11.256;2022-12-07T00:58:39;9.97;;;8.97;;
20324;SDS011;10320;49.482;11.256;2022-12-07T01:01:06;9.97;;;9.07;;
20324;SDS011;10320;49.482;11.256;2022-12-07T01:03:32;11.00;;;9.97;;
20324;SDS011;10320;49.482;11.256;2022-12-07T01:05:58;10.07;;;9.07;;
20324;SDS011;10320;49.482;11.256;2022-12-07T01:08:25;10.50;;;9.50;;
20324;SDS011;10320;49.482;11.256;2022-12-07T01:10:58;10.80;;;9.73;;
20324;SDS011;10320;49.482;11.256;2022-12-07T01:13:24;10.17;;;9.27;;
20324;SDS011;10320;49.482;11.256;2022-12-07T01:15:50;10.40;;;9.40;;
20324;SDS011;10320;49.482;11.256;2022-12-07T01:18:16;11.33;;;10.13;;
20324;SDS011;10320;49.482;11.256;2022-12-07T01:20:42;10.23;;;9.27;;
20324;SDS011;10320;49.482;11.256;2022-12-07T01:23:08;10.87;;;9.77;;
20324;SDS011;10320;49.482;11.256;2022-12-07T01:25:34;10.40;;;9.40;;
20324;SDS011;10320;49.482;11.256;2022-12-07T01:28:03;10.93;;;9.83;;
20324;SDS011;10320;49.482;11.256;2022-12-07T01:30:29;10.20;;;9.20;;
20324;SDS011;10320;49.482;11.256;2022-12-07T01:32:55;11.37;;;10.23;;
20324;SDS011;10320;49.482;11.256;2022-12-07T01:35:21;10.30;;;9.40;;
20324;SDS011;10320;49.482;11.256;2022-12-07T01:37:47;10.83;;;9.73;;
20324;SDS011;10320;49.482;11.256;2022-12-07T01:40:13;11.10;;;10.10;;
20324;SDS011;10320;49.482;11.256;2022-12-07T01:42:39;11.80;;;10.20;;
20324;SDS011;10320;49.482;11.256;2022-12-07T01:47:46;10.33;;;9.27;;
20324;SDS011;10320;49.482;11.256;2022-12-07T01:50:12;11.37;;;10.27;;
20324;SDS011;10320;49.482;11.256;2022-12-07T01:52:39;11.40;;;10.20;;
20324;SDS011;10320;49.482;11.256;2022-12-07T01:55:06;10.57;;;9.57;;
20324;SDS011;10320;49.482;11.256;2022-12-07T01:57:34;11.00;;;9.90;;
20324;SDS011;10320;49.482;11.256;2022-12-07T02:00:02;11.40;;;10.20;;
20324;SDS011;10320;49.482;11.256;2022-12-07T02:02:31;11.17;;;10.07;;
20324;SDS011;10320;49.482;11.256;2022-12-07T02:04:59;11.53;;;10.43;;
20324;SDS011;10320;49.482;11.256;2022-12-07T02:07:25;11.53;;;10.43;;
20324;SDS011;10320;49.482;11.256;2022-12-07T02:09:52;12.20;;;10.90;;
20324;SDS011;10320;49.482;11.256;2022-12-07T02:12:18;11.60;;;10.40;;
20324;SDS011;10320;49.482;11.256;2022-12-07T02:14:44;12.60;;;10.50;;
20324;SDS011;10320;49.482;11.256;2022-12-07T02:17:13;11.63;;;10.43;;
20324;SDS011;10320;49.482;11.256;2022-12-07T02:22:32;11.83;;;10.63;;
20324;SDS011;10320;49.482;11.256;2022-12-07T02:27:47;12.07;;;10.87;;
20324;SDS011;10320;49.482;11.256;2022-12-07T02:30:19;11.60;;;10.40;;
20324;SDS011;10320;49.482;11.256;2022-12-07T02:35:53;11.60;;;10.40;;
20324;SDS011;10320;49.482;11.256;2022-12-07T02:38:35;12.23;;;11.03;;
20324;SDS011;10320;49.482;11.256;2022-12-07T02:41:10;12.07;;;10.83;;
20324;SDS011;10320;49.482;11.256;2022-12-07T02:43:38;11.87;;;10.67;;
20324;SDS011;10320;49.482;11.256;2022-12-07T02:46:10;11.93;;;10.70;;
20324;SDS011;10320;49.482;11.256;2022-12-07T02:48:38;12.27;;;10.93;;
20324;SDS011;10320;49.482;11.256;2022-12-07T02:51:04;12.33;;;11.03;;
20324;SDS011;10320;49.482;11.256;2022-12-07T02:53:31;12.37;;;11.07;;
20324;SDS011;10320;49.482;11.256;2022-12-07T02:55:58;12.40;;;11.20;;
20324;SDS011;10320;49.482;11.256;2022-12-07T03:00:52;12.20;;;11.00;;
20324;SDS011;10320;49.482;11.256;2022-12-07T03:03:20;12.70;;;11.40;;
20324;SDS011;10320;49.482;11.256;2022-12-07T03:06:03;12.10;;;10.90;;
20324;SDS011;10320;49.482;11.256;2022-12-07T03:08:39;14.27;;;11.50;;
20324;SDS011;10320;49.482;11.256;2022-12-07T03:11:10;12.83;;;11.53;;
20324;SDS011;10320;49.482;11.256;2022-12-07T03:13:48;13.03;;;11.73;;
20324;SDS011;10320;49.482;11.256;2022-12-07T03:16:18;13.50;;;12.10;;
20324;SDS011;10320;49.482;11.256;2022-12-07T03:18:48;13.80;;;11.90;;
20324;SDS011;10320;49.482;11.256;2022-12-07T03:21:16;12.80;;;11.40;;
20324;SDS011;10320;49.482;11.256;2022-12-07T03:23:44;15.07;;;12.07;;
20324;SDS011;10320;49.482;11.256;2022-12-07T03:26:11;15.57;;;12.90;;
20324;SDS011;10320;49.482;11.256;2022-12-07T03:28:40;15.37;;;12.60;;
20324;SDS011;10320;49.482;11.256;2022-12-07T03:33:38;14.67;;;12.33;;
20324;SDS011;10320;49.482;11.256;2022-12-07T03:36:05;14.37;;;12.77;;
20324;SDS011;10320;49.482;11.256;2022-12-07T03:38:33;14.53;;;12.90;;
20324;SDS011;10320;49.482;11.256;2022-12-07T03:41:03;14.60;;;13.00;;
20324;SDS011;10320;49.482;11.256;2022-12-07T03:43:31;14.10;;;12.57;;
20324;SDS011;10320;49.482;11.256;2022-12-07T03:48:34;14.97;;;12.97;;
20324;SDS011;10320;49.482;11.256;2022-12-07T03:51:04;15.83;;;13.03;;
20324;SDS011;10320;49.482;11.256;2022-12-07T03:53:39;15.50;;;13.10;;
20324;SDS011;10320;49.482;11.256;2022-12-07T03:56:07;16.43;;;12.67;;
20324;SDS011;10320;49.482;11.256;2022-12-07T03:58:33;14.70;;;13.17;;
20324;SDS011;10320;49.482;11.256;2022-12-07T04:00:59;15.97;;;12.33;;
20324;SDS011;10320;49.482;11.256;2022-12-07T04:03:28;14.90;;;12.53;;
20324;SDS011;10320;49.482;11.256;2022-12-07T04:05:54;18.27;;;13.47;;
20324;SDS011;10320;49.482;11.256;2022-12-07T04:08:22;16.93;;;13.27;;
20324;SDS011;10320;49.482;11.256;2022-12-07T04:10:49;17.10;;;13.63;;
20324;SDS011;10320;49.482;11.256;2022-12-07T04:13:15;18.73;;;13.93;;
20324;SDS011;10320;49.482;11.256;2022-12-07T04:15:41;18.83;;;14.73;;
20324;SDS011;10320;49.482;11.256;2022-12-07T04:18:08;17.87;;;14.23;;
20324;SDS011;10320;49.482;11.256;2022-12-07T04:20:34;19.57;;;14.60;;
20324;SDS011;10320;49.482;11.256;2022-12-07T04:23:00;18.37;;;14.27;;
20324;SDS011;10320;49.482;11.256;2022-12-07T04:25:26;18.73;;;14.40;;
20324;SDS011;10320;49.482;11.256;2022-12-07T04:27:52;20.53;;;14.93;;
20324;SDS011;10320;49.482;11.256;2022-12-07T04:30:18;21.13;;;15.30;;
20324;SDS011;10320;49.482;11.256;2022-12-07T04:32:44;21.10;;;15.63;;
20324;SDS011;10320;49.482;11.256;2022-12-07T04:35:11;21.57;;;15.03;;
20324;SDS011;10320;49.482;11.256;2022-12-07T04:37:37;21.13;;;15.70;;
20324;SDS011;10320;49.482;11.256;2022-12-07T04:40:05;23.90;;;16.97;;
20324;SDS011;10320;49.482;11.256;2022-12-07T04:42:32;22.40;;;16.20;;
20324;SDS011;10320;49.482;11.256;2022-12-07T04:44:58;23.60;;;16.73;;
20324;SDS011;10320;49.482;11.256;2022-12-07T04:47:24;22.77;;;16.43;;
20324;SDS011;10320;49.482;11.256;2022-12-07T04:49:50;24.10;;;16.13;;
20324;SDS011;10320;49.482;11.256;2022-12-07T04:52:16;22.87;;;15.73;;
20324;SDS011;10320;49.482;11.256;2022-12-07T04:54:42;22.57;;;16.53;;
20324;SDS011;10320;49.482;11.256;2022-12-07T04:57:08;23.03;;;15.83;;
20324;SDS011;10320;49.482;11.256;2022-12-07T04:59:34;22.97;;;16.80;;
20324;SDS011;10320;49.482;11.256;2022-12-07T05:02:00;22.87;;;16.40;;
20324;SDS011;10320;49.482;11.256;2022-12-07T05:04:26;20.47;;;14.83;;
20324;SDS011;10320;49.482;11.256;2022-12-07T05:06:52;22.83;;;16.00;;
20324;SDS011;10320;49.482;11.256;2022-12-07T05:09:19;20.53;;;16.27;;
20324;SDS011;10320;49.482;11.256;2022-12-07T05:11:45;21.03;;;15.97;;
20324;SDS011;10320;49.482;11.256;2022-12-07T05:16:37;21.27;;;15.67;;
20324;SDS011;10320;49.482;11.256;2022-12-07T05:19:03;24.07;;;16.30;;
20324;SDS011;10320;49.482;11.256;2022-12-07T05:21:29;20.93;;;14.83;;
20324;SDS011;10320;49.482;11.256;2022-12-07T05:23:55;19.63;;;15.20;;
20324;SDS011;10320;49.482;11.256;2022-12-07T05:26:21;23.70;;;16.27;;
20324;SDS011;10320;49.482;11.256;2022-12-07T05:28:51;21.27;;;16.03;;
20324;SDS011;10320;49.482;11.256;2022-12-07T05:31:17;23.00;;;17.07;;
20324;SDS011;10320;49.482;11.256;2022-12-07T05:33:43;21.23;;;16.27;;
20324;SDS011;10320;49.482;11.256;2022-12-07T05:36:09;22.47;;;16.33;;
20324;SDS011;10320;49.482;11.256;2022-12-07T05:38:35;21.77;;;17.07;;
20324;SDS011;10320;49.482;11.256;2022-12-07T05:41:02;23.03;;;16.90;;
20324;SDS011;10320;49.482;11.256;2022-12-07T05:43:28;23.43;;;17.17;;
20324;SDS011;10320;49.482;11.256;2022-12-07T05:45:54;21.50;;;17.07;;
20324;SDS011;10320;49.482;11.256;2022-12-07T05:48:22;22.67;;;17.17;;
20324;SDS011;10320;49.482;11.256;2022-12-07T05:50:48;22.40;;;16.47;;
20324;SDS011;10320;49.482;11.256;2022-12-07T05:53:14;20.77;;;16.17;;
20324;SDS011;10320;49.482;11.256;2022-12-07T05:55:42;21.30;;;16.67;;
20324;SDS011;10320;49.482;11.256;2022-12-07T05:58:08;21.70;;;16.17;;
20324;SDS011;10320;49.482;11.256;2022-12-07T06:00:54;18.63;;;15.77;;
20324;SDS011;10320;49.482;11.256;2022-12-07T06:03:20;19.77;;;15.90;;
20324;SDS011;10320;49.482;11.256;2022-12-07T06:05:46;20.77;;;16.23;;
20324;SDS011;10320;49.482;11.256;2022-12-07T06:08:12;20.53;;;15.57;;
20324;SDS011;10320;49.482;11.256;2022-12-07T06:10:39;22.53;;;15.80;;
20324;SDS011;10320;49.482;11.256;2022-12-07T06:13:06;19.73;;;15.87;;
20324;SDS011;10320;49.482;11.256;2022-12-07T06:15:32;19.73;;;16.73;;
20324;SDS011;10320;49.482;11.256;2022-12-07T06:17:58;21.23;;;17.77;;
20324;SDS011;10320;49.482;11.256;2022-12-07T06:20:24;24.23;;;18.07;;
20324;SDS011;10320;49.482;11.256;2022-12-07T06:22:50;22.20;;;16.97;;
20324;SDS011;10320;49.482;11.256;2022-12-07T06:25:16;24.93;;;20.80;;
20324;SDS011;10320;49.482;11.256;2022-12-07T06:27:42;22.20;;;17.67;;
20324;SDS011;10320;49.482;11.256;2022-12-07T06:30:08;21.53;;;17.23;;
20324;SDS011;10320;49.482;11.256;2022-12-07T06:32:35;23.13;;;18.43;;
20324;SDS011;10320;49.482;11.256;2022-12-07T06:35:02;20.90;;;16.63;;
20324;SDS011;10320;49.482;11.256;2022-12-07T06:37:28;21.97;;;16.87;;
20324;SDS011;10320;49.482;11.256;2022-12-07T06:39:54;19.80;;;15.53;;
20324;SDS011;10320;49.482;11.256;2022-12-07T06:42:21;18.90;;;15.23;;
20324;SDS011;10320;49.482;11.256;2022-12-07T06:44:47;18.53;;;15.87;;
20324;SDS011;10320;49.482;11.256;2022-12-07T06:47:13;19.77;;;16.03;;
20324;SDS011;10320;49.482;11.256;2022-12-07T06:49:39;19.60;;;15.50;;
20324;SDS011;10320;49.482;11.256;2022-12-07T06:52:05;19.30;;;15.67;;
20324;SDS011;10320;49.482;11.256;2022-12-07T06:54:31;19.63;;;15.73;;
20324;SDS011;10320;49.482;11.256;2022-12-07T06:56:57;19.73;;;15.83;;
20324;SDS011;10320;49.482;11.256;2022-12-07T06:59:23;20.47;;;16.07;;
20324;SDS011;10320;49.482;11.256;2022-12-07T07:01:49;22.30;;;17.50;;
20324;SDS011;10320;49.482;11.256;2022-12-07T07:04:15;20.53;;;17.13;;
20324;SDS011;10320;49.482;11.256;2022-12-07T07:06:41;19.90;;;15.87;;
20324;SDS011;10320;49.482;11.256;2022-12-07T07:09:07;20.40;;;16.17;;
20324;SDS011;10320;49.482;11.256;2022-12-07T07:11:34;21.03;;;16.20;;
20324;SDS011;10320;49.482;11.256;2022-12-07T07:14:00;21.40;;;16.43;;
20324;SDS011;10320;49.482;11.256;2022-12-07T07:16:27;19.87;;;16.07;;
20324;SDS011;10320;49.482;11.256;2022-12-07T07:18:54;19.70;;;16.13;;
20324;SDS011;10320;49.482;11.256;2022-12-07T07:21:20;21.67;;;16.43;;
20324;SDS011;10320;49.482;11.256;2022-12-07T07:23:46;20.83;;;16.57;;
20324;SDS011;10320;49.482;11.256;2022-12-07T07:26:12;21.10;;;16.53;;
20324;SDS011;10320;49.482;11.256;2022-12-07T07:28:38;20.63;;;16.27;;
20324;SDS011;10320;49.482;11.256;2022-12-07T07:31:04;19.97;;;16.00;;
20324;SDS011;10320;49.482;11.256;2022-12-07T07:33:30;20.87;;;16.03;;
20324;SDS011;10320;49.482;11.256;2022-12-07T07:35:56;22.27;;;16.90;;
20324;SDS011;10320;49.482;11.256;2022-12-07T07:38:22;19.70;;;15.90;;
20324;SDS011;10320;49.482;11.256;2022-12-07T07:40:48;20.13;;;15.87;;
20324;SDS011;10320;49.482;11.256;2022-12-07T07:43:14;18.77;;;15.23;;
20324;SDS011;10320;49.482;11.256;2022-12-07T07:45:40;20.70;;;16.43;;
20324;SDS011;10320;49.482;11.256;2022-12-07T07:48:06;20.87;;;16.60;;
20324;SDS011;10320;49.482;11.256;2022-12-07T07:50:32;19.27;;;15.97;;
20324;SDS011;10320;49.482;11.256;2022-12-07T07:52:58;20.27;;;15.93;;
20324;SDS011;10320;49.482;11.256;2022-12-07T07:55:24;20.43;;;16.87;;
20324;SDS011;10320;49.482;11.256;2022-12-07T07:57:50;20.13;;;15.97;;
20324;SDS011;10320;49.482;11.256;2022-12-07T08:00:16;20.73;;;15.00;;
20324;SDS011;10320;49.482;11.256;2022-12-07T08:02:43;18.33;;;15.87;;
20324;SDS011;10320;49.482;11.256;2022-12-07T08:05:11;19.80;;;16.37;;
20324;SDS011;10320;49.482;11.256;2022-12-07T08:07:37;20.50;;;16.23;;
20324;SDS011;10320;49.482;11.256;2022-12-07T08:10:04;19.37;;;15.33;;
20324;SDS011;10320;49.482;11.256;2022-12-07T08:12:30;18.73;;;15.50;;
20324;SDS011;10320;49.482;11.256;2022-12-07T08:14:56;18.87;;;14.73;;
20324;SDS011;10320;49.482;11.256;2022-12-07T08:17:22;19.17;;;15.03;;
20324;SDS011;10320;49.482;11.256;2022-12-07T08:19:48;19.33;;;16.10;;
20324;SDS011;10320;49.482;11.256;2022-12-07T08:22:15;20.33;;;16.10;;
20324;SDS011;10320;49.482;11.256;2022-12-07T08:24:41;18.53;;;15.30;;
20324;SDS011;10320;49.482;11.256;2022-12-07T08:27:07;18.87;;;15.77;;
20324;SDS011;10320;49.482;11.256;2022-12-07T08:29:33;19.30;;;17.23;;
20324;SDS011;10320;49.482;11.256;2022-12-07T08:31:59;18.67;;;15.63;;
20324;SDS011;10320;49.482;11.256;2022-12-07T08:34:26;20.70;;;16.27;;
20324;SDS011;10320;49.482;11.256;2022-12-07T08:36:52;17.77;;;14.67;;
20324;SDS011;10320;49.482;11.256;2022-12-07T08:39:18;19.70;;;15.50;;
20324;SDS011;10320;49.482;11.256;2022-12-07T08:41:44;20.20;;;15.93;;
20324;SDS011;10320;49.482;11.256;2022-12-07T08:44:10;20.77;;;16.53;;
20324;SDS011;10320;49.482;11.256;2022-12-07T08:51:30;18.23;;;15.20;;
20324;SDS011;10320;49.482;11.256;2022-12-07T08:53:56;19.27;;;15.13;;
20324;SDS011;10320;49.482;11.256;2022-12-07T08:56:26;18.70;;;15.10;;
20324;SDS011;10320;49.482;11.256;2022-12-07T08:58:52;18.60;;;15.70;;
20324;SDS011;10320;49.482;11.256;2022-12-07T09:01:18;19.07;;;15.90;;
20324;SDS011;10320;49.482;11.256;2022-12-07T09:03:44;19.50;;;15.17;;
20324;SDS011;10320;49.482;11.256;2022-12-07T09:06:09;19.37;;;16.50;;
20324;SDS011;10320;49.482;11.256;2022-12-07T09:08:36;19.60;;;15.67;;
20324;SDS011;10320;49.482;11.256;2022-12-07T09:11:06;18.40;;;15.53;;
20324;SDS011;10320;49.482;11.256;2022-12-07T09:13:32;19.37;;;15.77;;
20324;SDS011;10320;49.482;11.256;2022-12-07T09:15:58;20.13;;;15.93;;
20324;SDS011;10320;49.482;11.256;2022-12-07T09:18:23;20.63;;;16.33;;
20324;SDS011;10320;49.482;11.256;2022-12-07T09:20:50;20.77;;;16.33;;
20324;SDS011;10320;49.482;11.256;2022-12-07T09:23:16;22.10;;;16.43;;
20324;SDS011;10320;49.482;11.256;2022-12-07T09:25:42;20.37;;;16.17;;
20324;SDS011;10320;49.482;11.256;2022-12-07T09:28:08;19.37;;;16.37;;
20324;SDS011;10320;49.482;11.256;2022-12-07T09:30:34;23.03;;;18.10;;
20324;SDS011;10320;49.482;11.256;2022-12-07T09:33:00;19.73;;;15.73;;
20324;SDS011;10320;49.482;11.256;2022-12-07T09:35:27;18.63;;;13.77;;
20324;SDS011;10320;49.482;11.256;2022-12-07T09:37:53;17.90;;;14.07;;
20324;SDS011;10320;49.482;11.256;2022-12-07T09:40:21;14.73;;;12.67;;
20324;SDS011;10320;49.482;11.256;2022-12-07T09:42:51;17.13;;;13.13;;
20324;SDS011;10320;49.482;11.256;2022-12-07T09:45:24;18.53;;;13.63;;
20324;SDS011;10320;49.482;11.256;2022-12-07T09:47:51;16.33;;;12.83;;
20324;SDS011;10320;49.482;11.256;2022-12-07T09:50:21;15.20;;;12.60;;
20324;SDS011;10320;49.482;11.256;2022-12-07T09:52:49;14.43;;;11.70;;
20324;SDS011;10320;49.482;11.256;2022-12-07T09:55:16;13.67;;;11.07;;
20324;SDS011;10320;49.482;11.256;2022-12-07T09:57:45;12.60;;;10.50;;
20324;SDS011;10320;49.482;11.256;2022-12-07T10:00:12;13.77;;;11.23;;
20324;SDS011;10320;49.482;11.256;2022-12-07T10:02:40;12.80;;;10.93;;
20324;SDS011;10320;49.482;11.256;2022-12-07T10:05:20;13.57;;;11.50;;
20324;SDS011;10320;49.482;11.256;2022-12-07T10:07:48;14.27;;;10.80;;
20324;SDS011;10320;49.482;11.256;2022-12-07T10:10:25;13.50;;;11.63;;
20324;SDS011;10320;49.482;11.256;2022-12-07T10:12:59;13.20;;;10.80;;
20324;SDS011;10320;49.482;11.256;2022-12-07T10:18:16;13.77;;;10.30;;
20324;SDS011;10320;49.482;11.256;2022-12-07T10:20:42;14.43;;;11.80;;
20324;SDS011;10320;49.482;11.256;2022-12-07T10:23:15;12.60;;;10.57;;
20324;SDS011;10320;49.482;11.256;2022-12-07T10:25:41;13.60;;;10.17;;
20324;SDS011;10320;49.482;11.256;2022-12-07T10:30:45;13.03;;;10.63;;
20324;SDS011;10320;49.482;11.256;2022-12-07T10:33:27;12.30;;;10.67;;
20324;SDS011;10320;49.482;11.256;2022-12-07T10:35:54;14.23;;;11.23;;
20324;SDS011;10320;49.482;11.256;2022-12-07T10:38:20;12.33;;;10.27;;
20324;SDS011;10320;49.482;11.256;2022-12-07T10:40:46;13.07;;;10.70;;
20324;SDS011;10320;49.482;11.256;2022-12-07T10:48:19;12.97;;;10.67;;
20324;SDS011;10320;49.482;11.256;2022-12-07T10:58:38;13.97;;;10.93;;
20324;SDS011;10320;49.482;11.256;2022-12-07T11:01:18;12.37;;;10.17;;
20324;SDS011;10320;49.482;11.256;2022-12-07T11:03:51;12.30;;;10.80;;
20324;SDS011;10320;49.482;11.256;2022-12-07T11:06:37;14.53;;;10.50;;
20324;SDS011;10320;49.482;11.256;2022-12-07T11:20:00;12.60;;;11.00;;
20324;SDS011;10320;49.482;11.256;2022-12-07T11:22:41;11.53;;;9.90;;
20324;SDS011;10320;49.482;11.256;2022-12-07T11:30:23;12.77;;;10.73;;
20324;SDS011;10320;49.482;11.256;2022-12-07T11:38:16;11.90;;;10.37;;
20324;SDS011;10320;49.482;11.256;2022-12-07T11:40:45;13.83;;;10.67;;
20324;SDS011;10320;49.482;11.256;2022-12-07T11:43:15;12.80;;;11.37;;
20324;SDS011;10320;49.482;11.256;2022-12-07T11:45:42;12.90;;;11.13;;
20324;SDS011;10320;49.482;11.256;2022-12-07T11:48:45;11.23;;;10.03;;
20324;SDS011;10320;49.482;11.256;2022-12-07T11:51:03;12.57;;;10.77;;
20324;SDS011;10320;49.482;11.256;2022-12-07T11:53:39;13.80;;;11.87;;
20324;SDS011;10320;49.482;11.256;2022-12-07T11:56:14;13.20;;;11.40;;
20324;SDS011;10320;49.482;11.256;2022-12-07T12:04:19;13.47;;;11.80;;
20324;SDS011;10320;49.482;11.256;2022-12-07T12:06:47;13.07;;;11.63;;
20324;SDS011;10320;49.482;11.256;2022-12-07T12:09:15;11.83;;;10.40;;
20324;SDS011;10320;49.482;11.256;2022-12-07T12:11:46;12.90;;;11.60;;
20324;SDS011;10320;49.482;11.256;2022-12-07T12:19:30;12.20;;;10.70;;
20324;SDS011;10320;49.482;11.256;2022-12-07T12:22:15;12.30;;;11.00;;
20324;SDS011;10320;49.482;11.256;2022-12-07T12:24:42;12.37;;;10.57;;
20324;SDS011;10320;49.482;11.256;2022-12-07T12:27:14;11.80;;;10.30;;
20324;SDS011;10320;49.482;11.256;2022-12-07T12:29:41;12.33;;;11.03;;
20324;SDS011;10320;49.482;11.256;2022-12-07T12:32:21;12.27;;;10.80;;
20324;SDS011;10320;49.482;11.256;2022-12-07T12:35:00;12.57;;;10.80;;
20324;SDS011;10320;49.482;11.256;2022-12-07T12:42:57;12.53;;;11.23;;
20324;SDS011;10320;49.482;11.256;2022-12-07T12:45:30;13.33;;;10.90;;
20324;SDS011;10320;49.482;11.256;2022-12-07T12:47:58;11.93;;;10.67;;
20324;SDS011;10320;49.482;11.256;2022-12-07T12:50:25;13.23;;;11.23;;
20324;SDS011;10320;49.482;11.256;2022-12-07T12:52:53;12.17;;;10.20;;
20324;SDS011;10320;49.482;11.256;2022-12-07T12:55:21;11.97;;;10.63;;
20324;SDS011;10320;49.482;11.256;2022-12-07T13:00:37;12.87;;;10.63;;
20324;SDS011;10320;49.482;11.256;2022-12-07T13:03:04;11.53;;;10.33;;
20324;SDS011;10320;49.482;11.256;2022-12-07T13:05:30;12.33;;;11.03;;
20324;SDS011;10320;49.482;11.256;2022-12-07T13:08:01;11.63;;;10.37;;
20324;SDS011;10320;49.482;11.256;2022-12-07T13:17:59;11.40;;;10.20;;
20324;SDS011;10320;49.482;11.256;2022-12-07T13:20:59;11.63;;;10.47;;
20324;SDS011;10320;49.482;11.256;2022-12-07T13:28:41;12.23;;;10.67;;
20324;SDS011;10320;49.482;11.256;2022-12-07T13:33:43;13.73;;;12.32;;
20324;SDS011;10320;49.482;11.256;2022-12-07T13:36:21;12.87;;;11.10;;
20324;SDS011;10320;49.482;11.256;2022-12-07T13:38:48;12.47;;;11.17;;
20324;SDS011;10320;49.482;11.256;2022-12-07T13:41:16;12.47;;;11.17;;
20324;SDS011;10320;49.482;11.256;2022-12-07T13:43:51;12.57;;;10.93;;
20324;SDS011;10320;49.482;11.256;2022-12-07T13:46:19;12.73;;;11.33;;
20324;SDS011;10320;49.482;11.256;2022-12-07T13:48:48;12.87;;;11.53;;
20324;SDS011;10320;49.482;11.256;2022-12-07T13:51:19;13.83;;;12.43;;
20324;SDS011;10320;49.482;11.256;2022-12-07T13:53:46;14.87;;;12.40;;
20324;SDS011;10320;49.482;11.256;2022-12-07T13:56:12;14.73;;;13.17;;
20324;SDS011;10320;49.482;11.256;2022-12-07T13:58:40;15.13;;;13.13;;
20324;SDS011;10320;49.482;11.256;2022-12-07T14:01:07;15.23;;;13.63;;
20324;SDS011;10320;49.482;11.256;2022-12-07T14:03:34;15.97;;;14.27;;
20324;SDS011;10320;49.482;11.256;2022-12-07T14:06:05;15.80;;;14.00;;
20324;SDS011;10320;49.482;11.256;2022-12-07T14:08:31;14.20;;;12.60;;
20324;SDS011;10320;49.482;11.256;2022-12-07T14:10:57;14.40;;;12.57;;
20324;SDS011;10320;49.482;11.256;2022-12-07T14:15:56;14.80;;;12.80;;
20324;SDS011;10320;49.482;11.256;2022-12-07T14:18:27;13.30;;;11.90;;
20324;SDS011;10320;49.482;11.256;2022-12-07T14:21:14;14.43;;;12.93;;
20324;SDS011;10320;49.482;11.256;2022-12-07T14:23:41;16.10;;;13.10;;
20324;SDS011;10320;49.482;11.256;2022-12-07T14:26:08;16.40;;;13.57;;
20324;SDS011;10320;49.482;11.256;2022-12-07T14:28:38;18.53;;;14.63;;
20324;SDS011;10320;49.482;11.256;2022-12-07T14:31:12;17.13;;;13.60;;
20324;SDS011;10320;49.482;11.256;2022-12-07T14:33:39;17.53;;;13.40;;
20324;SDS011;10320;49.482;11.256;2022-12-07T14:36:05;18.07;;;13.90;;
20324;SDS011;10320;49.482;11.256;2022-12-07T14:38:31;16.00;;;14.20;;
20324;SDS011;10320;49.482;11.256;2022-12-07T14:40:58;16.67;;;14.43;;
20324;SDS011;10320;49.482;11.256;2022-12-07T14:43:44;17.43;;;13.97;;
20324;SDS011;10320;49.482;11.256;2022-12-07T14:46:10;16.07;;;13.77;;
20324;SDS011;10320;49.482;11.256;2022-12-07T14:48:36;23.03;;;14.97;;
20324;SDS011;10320;49.482;11.256;2022-12-07T14:51:02;17.10;;;15.30;;
20324;SDS011;10320;49.482;11.256;2022-12-07T14:53:30;16.43;;;13.37;;
20324;SDS011;10320;49.482;11.256;2022-12-07T14:55:57;15.87;;;13.00;;
20324;SDS011;10320;49.482;11.256;2022-12-07T14:58:23;17.87;;;14.10;;
20324;SDS011;10320;49.482;11.256;2022-12-07T15:00:49;15.00;;;12.57;;
20324;SDS011;10320;49.482;11.256;2022-12-07T15:03:15;13.17;;;11.13;;
20324;SDS011;10320;49.482;11.256;2022-12-07T15:05:41;11.63;;;10.30;;
20324;SDS011;10320;49.482;11.256;2022-12-07T15:08:13;12.50;;;10.17;;
20324;SDS011;10320;49.482;11.256;2022-12-07T15:10:39;10.53;;;9.30;;
20324;SDS011;10320;49.482;11.256;2022-12-07T15:13:06;11.13;;;9.93;;
20324;SDS011;10320;49.482;11.256;2022-12-07T15:15:51;9.30;;;8.30;;
20324;SDS011;10320;49.482;11.256;2022-12-07T15:18:18;8.57;;;7.33;;
20324;SDS011;10320;49.482;11.256;2022-12-07T15:20:45;7.30;;;6.50;;
20324;SDS011;10320;49.482;11.256;2022-12-07T15:23:11;6.77;;;6.00;;
20324;SDS011;10320;49.482;11.256;2022-12-07T15:25:44;6.63;;;5.97;;
20324;SDS011;10320;49.482;11.256;2022-12-07T15:28:11;6.90;;;5.77;;
20324;SDS011;10320;49.482;11.256;2022-12-07T15:30:37;6.63;;;5.60;;
20324;SDS011;10320;49.482;11.256;2022-12-07T15:33:05;6.17;;;5.57;;
20324;SDS011;10320;49.482;11.256;2022-12-07T15:35:31;7.27;;;6.03;;
20324;SDS011;10320;49.482;11.256;2022-12-07T15:37:57;9.13;;;7.80;;
20324;SDS011;10320;49.482;11.256;2022-12-07T15:40:23;7.47;;;6.63;;
20324;SDS011;10320;49.482;11.256;2022-12-07T15:42:49;8.13;;;7.30;;
20324;SDS011;10320;49.482;11.256;2022-12-07T15:45:15;8.83;;;7.63;;
20324;SDS011;10320;49.482;11.256;2022-12-07T15:47:42;9.43;;;7.40;;
20324;SDS011;10320;49.482;11.256;2022-12-07T15:50:11;9.07;;;7.03;;
20324;SDS011;10320;49.482;11.256;2022-12-07T15:52:37;7.40;;;6.67;;
20324;SDS011;10320;49.482;11.256;2022-12-07T15:55:05;7.77;;;6.97;;
20324;SDS011;10320;49.482;11.256;2022-12-07T15:57:32;8.87;;;7.97;;
20324;SDS011;10320;49.482;11.256;2022-12-07T15:59:58;9.57;;;8.50;;